Time;durP1;ratioP1;P1;durP2;ratioP2;P2;SDS_P1;SDS_P2;PMS_P1;PMS_P2;Temp;Humidity;BMP_temperature;BMP_pressure;BME280_temperature;BME280_humidity;BME280_pressure;Samples;Min_cycle;Max_cycle;Signal;HPM_P1;HPM_P2
2021/12/15 00:00:48;;;;;;;;;;;;;;;19.53;47.92;100769.22;2093262;28;19948;-66
2021/12/15 00:01:49;;;;;;;;;;;;;;;19.53;47.85;100761.00;2091144;28;19990;-66
2021/12/15 00:02:51;;;;;;;;;;;;;;;19.56;47.80;100766.19;2089374;28;20088;-66
2021/12/15 00:03:52;;;;;;;;;;;;;;;19.58;47.77;100758.72;2092544;28;20026;-66
2021/12/15 00:04:53;;;;;;;;;;;;;;;19.58;47.84;100758.72;2091654;28;19930;-66
2021/12/15 00:05:53;;;;;;;;;;;;;;;19.59;47.73;100763.19;2092133;28;19908;-66
2021/12/15 00:06:54;;;;;;;;;;;;;;;19.60;47.72;100762.19;2088930;28;20294;-67
2021/12/15 00:07:58;;;;;;;;;;;;;;;19.63;47.69;100764.66;2090231;28;20007;-66
2021/12/15 00:09:01;;;;;;;;;;;;;;;19.64;47.62;100769.09;2077982;28;20129;-66
2021/12/15 00:10:03;;;;;;;;;;;;;;;19.65;47.60;100759.06;2082416;28;20422;-66
2021/12/15 00:11:04;;;;;;;;;;;;;;;19.65;47.63;100757.19;2090368;28;20454;-66
2021/12/15 00:12:04;;;;;;;;;;;;;;;19.66;47.58;100750.69;2093500;28;20298;-66
2021/12/15 00:13:05;;;;;;;;;;;;;;;19.67;47.54;100752.47;2090740;28;19970;-66
2021/12/15 00:14:08;;;;;;;;;;;;;;;19.68;47.52;100748.72;2091064;28;19908;-66
2021/12/15 00:15:09;;;;;;;;;;;;;;;19.68;47.48;100751.47;2092007;28;20303;-66
2021/12/15 00:16:10;;;;;;;;;;;;;;;19.69;47.49;100749.59;2090089;28;20193;-66
2021/12/15 00:17:10;;;;;;;;;;;;;;;19.70;47.50;100752.19;2091616;28;19927;-66
2021/12/15 00:18:11;;;;;;;;;;;;;;;19.70;47.45;100748.59;2088598;28;19908;-67
2021/12/15 00:19:12;;;;;;;;;;;;;;;19.68;47.47;100746.00;2087795;28;19912;-67
2021/12/15 00:20:14;;;;;;;;;;;;;;;19.69;47.49;100749.59;2091846;28;19919;-66
2021/12/15 00:21:16;;;;;;;;;;;;;;;19.69;47.47;100744.13;2087498;28;20555;-66
2021/12/15 00:22:16;;;;;;;;;;;;;;;19.69;47.51;100747.72;2087755;28;20366;-66
2021/12/15 00:23:17;;;;;;;;;;;;;;;19.70;47.46;100740.41;2085811;28;20363;-66
2021/12/15 00:24:17;;;;;;;;;;;;;;;19.70;47.47;100733.06;2089519;28;19945;-66
2021/12/15 00:25:18;;;;;;;;;;;;;;;19.72;47.44;100737.50;2089053;28;19958;-65
2021/12/15 00:26:19;;;;;;;;;;;;;;;19.72;47.53;100732.03;2090173;28;19920;-66
2021/12/15 00:27:19;;;;;;;;;;;;;;;19.71;47.45;100739.38;2091494;28;20035;-66
2021/12/15 00:28:19;;;;;;;;;;;;;;;19.71;47.56;100736.66;2089107;28;19912;-66
2021/12/15 00:29:20;;;;;;;;;;;;;;;19.70;47.41;100738.53;2088497;28;20669;-65
2021/12/15 00:30:21;;;;;;;;;;;;;;;19.72;47.38;100742.97;2086618;28;19924;-66
2021/12/15 00:31:22;;;;;;;;;;;;;;;19.70;47.50;100746.72;2091267;28;19916;-66
2021/12/15 00:32:22;;;;;;;;;;;;;;;19.71;47.35;100736.66;2091090;28;19942;-65
2021/12/15 00:33:22;;;;;;;;;;;;;;;19.70;47.46;100741.25;2085976;28;20611;-66
2021/12/15 00:34:23;;;;;;;;;;;;;;;19.70;47.47;100735.78;2089877;28;20406;-67
2021/12/15 00:35:23;;;;;;;;;;;;;;;19.70;47.54;100741.25;2089107;28;19923;-66
2021/12/15 00:36:23;;;;;;;;;;;;;;;19.70;47.42;100734.94;2091458;28;20419;-67
2021/12/15 00:37:24;;;;;;;;;;;;;;;19.68;47.46;100735.06;2089250;28;19915;-67
2021/12/15 00:38:24;;;;;;;;;;;;;;;19.68;47.49;100729.59;2091206;28;19916;-67
2021/12/15 00:39:26;;;;;;;;;;;;;;;19.69;47.53;100734.03;2088177;28;19916;-67
2021/12/15 00:40:28;;;;;;;;;;;;;;;19.68;47.42;100737.78;2090766;28;19960;-67
2021/12/15 00:41:28;;;;;;;;;;;;;;;19.69;47.42;100744.13;2085422;28;19924;-67
2021/12/15 00:42:29;;;;;;;;;;;;;;;19.68;47.47;100729.59;2086385;28;19917;-66
2021/12/15 00:43:29;;;;;;;;;;;;;;;19.69;47.50;100735.91;2085476;28;19909;-67
2021/12/15 00:44:30;;;;;;;;;;;;;;;19.67;47.49;100741.53;2091817;28;20007;-67
2021/12/15 00:45:30;;;;;;;;;;;;;;;19.67;47.54;100730.59;2088992;28;19962;-66
2021/12/15 00:46:31;;;;;;;;;;;;;;;19.69;47.39;100739.50;2085682;28;19962;-67
2021/12/15 00:47:31;;;;;;;;;;;;;;;19.70;47.43;100729.44;2091264;28;19937;-68
2021/12/15 00:48:32;;;;;;;;;;;;;;;19.69;47.47;100739.50;2091319;28;20449;-67
2021/12/15 00:49:33;;;;;;;;;;;;;;;19.69;47.43;100733.19;2091456;28;20430;-67
2021/12/15 00:50:34;;;;;;;;;;;;;;;19.68;47.52;100737.78;2088761;28;19919;-66
2021/12/15 00:51:35;;;;;;;;;;;;;;;19.69;47.48;100728.56;2090184;28;19916;-67
2021/12/15 00:52:37;;;;;;;;;;;;;;;19.68;47.47;100740.53;2089545;28;19927;-67
2021/12/15 00:53:38;;;;;;;;;;;;;;;19.68;47.41;100731.47;2089959;28;19922;-66
2021/12/15 00:54:38;;;;;;;;;;;;;;;19.67;47.45;100726.94;2092436;28;19919;-67
2021/12/15 00:55:39;;;;;;;;;;;;;;;19.66;47.52;100734.28;2090632;28;19935;-66
2021/12/15 00:56:39;;;;;;;;;;;;;;;19.66;47.53;100734.28;2089851;28;20558;-66
2021/12/15 00:57:39;;;;;;;;;;;;;;;19.65;47.51;100735.31;2092364;28;19916;-66
2021/12/15 00:58:40;;;;;;;;;;;;;;;19.66;47.54;100730.69;2089775;28;19920;-66
2021/12/15 00:59:40;;;;;;;;;;;;;;;19.65;47.52;100727.09;2089883;28;19916;-66
2021/12/15 01:00:43;;;;;;;;;;;;;;;19.66;47.53;100733.44;2088449;28;19916;-66
2021/12/15 01:01:43;;;;;;;;;;;;;;;19.66;47.53;100728.81;2090066;28;19916;-66
2021/12/15 01:02:43;;;;;;;;;;;;;;;19.65;47.52;100728.97;2092056;28;19985;-66
2021/12/15 01:03:44;;;;;;;;;;;;;;;19.65;47.54;100727.09;2087717;28;19912;-66
2021/12/15 01:04:45;;;;;;;;;;;;;;;19.64;47.37;100725.34;2090288;28;19928;-67
2021/12/15 01:05:47;;;;;;;;;;;;;;;19.65;47.54;100732.56;2091885;28;20043;-67
2021/12/15 01:06:52;;;;;;;;;;;;;;;19.64;47.58;100729.97;2089953;28;19934;-67
2021/12/15 01:07:53;;;;;;;;;;;;;;;19.63;47.55;100723.63;2090392;28;20625;-67
2021/12/15 01:08:57;;;;;;;;;;;;;;;19.64;47.46;100730.81;2091408;28;20879;-66
2021/12/15 01:09:59;;;;;;;;;;;;;;;19.65;47.52;100737.19;2088669;28;20614;-67
2021/12/15 01:11:10;;;;;;;;;;;;;;;19.63;47.46;100726.38;2090288;28;19915;-66
2021/12/15 01:20:10;;;;;;;;;;;;;;;19.61;47.46;100731.09;2081390;28;20721;-67
2021/12/15 01:21:10;;;;;;;;;;;;;;;19.60;47.51;100731.22;2084418;28;20133;-67
2021/12/15 01:22:11;;;;;;;;;;;;;;;19.57;47.65;100729.63;2087073;28;19916;-67
2021/12/15 01:23:13;;;;;;;;;;;;;;;19.56;47.67;100740.72;2091161;28;19908;-67
2021/12/15 01:24:13;;;;;;;;;;;;;;;19.54;47.78;100738.13;2087566;28;19927;-68
2021/12/15 01:25:34;;;;;;;;;;;;;;;19.52;47.76;100731.91;2088000;28;19959;-67
2021/12/15 01:26:35;;;;;;;;;;;;;;;19.50;47.79;100736.69;2091079;28;19920;-67
2021/12/15 01:27:35;;;;;;;;;;;;;;;19.49;47.83;100743.13;2102541;28;19916;-67
2021/12/15 01:28:36;;;;;;;;;;;;;;;19.47;47.68;100734.19;2094826;28;19973;-67
2021/12/15 01:29:36;;;;;;;;;;;;;;;19.46;47.77;100744.28;2089670;28;20481;-67
2021/12/15 01:30:39;;;;;;;;;;;;;;;19.46;47.90;100737.97;2092442;28;19920;-67
2021/12/15 01:31:39;;;;;;;;;;;;;;;19.44;47.89;100735.34;2093161;28;20045;-67
2021/12/15 01:32:39;;;;;;;;;;;;;;;19.44;47.94;100738.06;2097082;28;19923;-67
2021/12/15 01:33:41;;;;;;;;;;;;;;;19.42;47.94;100736.47;2092773;28;19916;-67
2021/12/15 01:34:41;;;;;;;;;;;;;;;19.42;47.95;100741.94;2081440;28;19916;-67
2021/12/15 01:35:43;;;;;;;;;;;;;;;19.40;47.98;100743.94;2082037;28;19965;-67
2021/12/15 01:36:43;;;;;;;;;;;;;;;19.39;48.02;100734.91;2091901;28;19927;-67
2021/12/15 01:37:45;;;;;;;;;;;;;;;19.38;48.05;100740.50;2092284;28;19909;-67
2021/12/15 01:38:46;;;;;;;;;;;;;;;19.35;48.16;100733.41;2092773;28;19954;-67
2021/12/15 01:39:46;;;;;;;;;;;;;;;19.36;47.99;100737.91;2089398;28;19908;-67
2021/12/15 01:40:47;;;;;;;;;;;;;;;19.35;48.06;100740.75;2090060;28;19989;-68
2021/12/15 01:41:48;;;;;;;;;;;;;;;19.35;48.15;100735.28;2090971;28;19922;-67
2021/12/15 01:42:48;;;;;;;;;;;;;;;19.34;48.18;100736.31;2091951;28;20022;-67
2021/12/15 01:47:44;;;;;;;;;;;;;;;19.32;48.17;100736.44;2092383;28;19916;-64
2021/12/15 01:49:13;;;;;;;;;;;;;;;19.30;48.19;100741.16;2095684;28;19912;-67
2021/12/15 01:50:14;;;;;;;;;;;;;;;19.28;48.20;100727.66;2083803;28;19939;-66
2021/12/15 01:51:14;;;;;;;;;;;;;;;19.29;48.20;100742.19;2093201;28;19916;-66
2021/12/15 01:52:14;;;;;;;;;;;;;;;19.27;48.23;100731.38;2093287;28;19908;-66
2021/12/15 01:53:15;;;;;;;;;;;;;;;19.26;48.28;100732.38;2088395;28;19938;-67
2021/12/15 01:54:16;;;;;;;;;;;;;;;19.26;48.26;100737.84;2088464;28;19912;-66
2021/12/15 01:55:18;;;;;;;;;;;;;;;19.26;48.24;100732.38;2094986;28;19971;-67
2021/12/15 01:56:18;;;;;;;;;;;;;;;19.25;48.28;100733.38;2091935;28;20381;-67
2021/12/15 01:57:20;;;;;;;;;;;;;;;19.24;48.35;100734.38;2093073;28;20018;-67
2021/12/15 01:58:21;;;;;;;;;;;;;;;19.25;48.28;100735.25;2083483;28;19931;-67
2021/12/15 01:59:23;;;;;;;;;;;;;;;19.24;48.38;100733.53;2083710;28;20134;-67
2021/12/15 02:00:33;;;;;;;;;;;;;;;19.24;48.36;100733.53;2091997;28;19995;-67
2021/12/15 02:01:34;;;;;;;;;;;;;;;19.22;48.39;100739.13;2092332;28;19913;-67
2021/12/15 02:02:34;;;;;;;;;;;;;;;19.22;48.44;100730.06;2089215;28;19920;-67
2021/12/15 02:03:35;;;;;;;;;;;;;;;19.22;48.47;100730.91;2092934;28;20086;-65
2021/12/15 02:04:36;;;;;;;;;;;;;;;19.21;48.46;100737.41;2091743;28;19928;-66
2021/12/15 02:05:37;;;;;;;;;;;;;;;19.21;48.43;100734.66;2093108;28;19998;-66
2021/12/15 02:06:42;;;;;;;;;;;;;;;19.20;48.49;100727.44;2088717;28;19920;-66
2021/12/15 02:07:44;;;;;;;;;;;;;;;19.20;48.41;100732.91;2090955;28;20772;-66
2021/12/15 02:08:45;;;;;;;;;;;;;;;19.20;48.42;100726.59;2092934;28;20438;-66
2021/12/15 02:10:54;;;;;;;;;;;;;;;19.19;48.46;100736.66;2093043;28;19912;-66
2021/12/15 02:11:54;;;;;;;;;;;;;;;19.19;48.51;100731.19;2093216;28;20412;-65
2021/12/15 02:12:56;;;;;;;;;;;;;;;19.19;48.48;100731.19;2095618;28;20199;-65
2021/12/15 02:13:56;;;;;;;;;;;;;;;19.18;48.37;100729.47;2091019;28;20026;-66
2021/12/15 02:14:57;;;;;;;;;;;;;;;19.19;48.42;100727.59;2092467;28;19916;-66
2021/12/15 02:15:58;;;;;;;;;;;;;;;19.17;48.44;100727.72;2094094;28;19908;-66
2021/12/15 02:16:59;;;;;;;;;;;;;;;19.17;48.48;100716.78;2092542;28;19916;-66
2021/12/15 02:18:03;;;;;;;;;;;;;;;19.16;48.46;100726.00;2091343;28;19938;-66
2021/12/15 02:19:03;;;;;;;;;;;;;;;19.16;48.46;100723.28;2092313;28;20042;-66
2021/12/15 02:20:04;;;;;;;;;;;;;;;19.16;48.52;100720.53;2092453;28;19916;-66
2021/12/15 02:21:06;;;;;;;;;;;;;;;19.16;48.42;100725.16;2093286;28;19916;-66
2021/12/15 02:22:07;;;;;;;;;;;;;;;19.15;48.36;100724.25;2092672;28;19908;-66
2021/12/15 02:23:09;;;;;;;;;;;;;;;19.15;48.48;100724.25;2091627;28;20003;-66
2021/12/15 02:24:10;;;;;;;;;;;;;;;19.14;48.43;100722.53;2092779;28;19961;-66
2021/12/15 02:25:13;;;;;;;;;;;;;;;19.14;48.48;100725.28;2093206;28;19923;-66
2021/12/15 02:26:16;;;;;;;;;;;;;;;19.14;48.50;100717.06;2094678;28;20399;-67
2021/12/15 02:27:17;;;;;;;;;;;;;;;19.14;48.51;100722.53;2092054;28;20703;-66
2021/12/15 02:28:17;;;;;;;;;;;;;;;19.13;48.52;100726.25;2091649;28;20331;-66
2021/12/15 02:29:20;;;;;;;;;;;;;;;19.13;48.47;100717.19;2094447;28;19966;-66
2021/12/15 02:37:18;;;;;;;;;;;;;;;19.09;48.52;100708.41;2071505;28;20424;-66
2021/12/15 02:38:25;;;;;;;;;;;;;;;19.10;48.54;100715.59;2094861;28;19912;-66
2021/12/15 02:39:25;;;;;;;;;;;;;;;19.10;48.58;100710.13;2093048;28;19939;-67
2021/12/15 02:40:25;;;;;;;;;;;;;;;19.10;48.63;100709.28;2092268;28;19923;-66
2021/12/15 02:41:29;;;;;;;;;;;;;;;19.10;48.55;100712.00;2094049;28;19927;-67
2021/12/15 02:42:48;;;;;;;;;;;;;;;19.09;48.58;100704.81;2091773;28;19916;-66
2021/12/15 02:43:51;;;;;;;;;;;;;;;19.08;48.61;100709.41;2087275;28;19916;-66
2021/12/15 02:44:51;;;;;;;;;;;;;;;19.09;48.61;100707.56;2093296;28;20318;-67
2021/12/15 02:45:52;;;;;;;;;;;;;;;19.08;48.66;100714.00;2090526;28;19952;-66
2021/12/15 02:46:53;;;;;;;;;;;;;;;19.08;48.54;100712.13;2092589;28;20340;-67
2021/12/15 02:47:53;;;;;;;;;;;;;;;19.07;48.68;100707.69;2094498;28;19927;-66
2021/12/15 02:48:54;;;;;;;;;;;;;;;19.08;48.64;100711.28;2092724;28;19908;-66
2021/12/15 02:49:55;;;;;;;;;;;;;;;19.06;48.71;100708.69;2094380;28;19924;-67
2021/12/15 02:50:56;;;;;;;;;;;;;;;19.07;48.61;100704.94;2087531;28;20285;-67
2021/12/15 02:51:58;;;;;;;;;;;;;;;19.06;48.67;100708.69;2090157;28;20127;-66
2021/12/15 02:52:58;;;;;;;;;;;;;;;19.06;48.62;100711.44;2092069;28;19926;-66
2021/12/15 02:53:59;;;;;;;;;;;;;;;19.06;48.73;100703.22;2090678;28;20785;-66
2021/12/15 02:54:59;;;;;;;;;;;;;;;19.07;48.68;100710.41;2093653;28;19904;-66
2021/12/15 02:56:00;;;;;;;;;;;;;;;19.06;48.67;100705.97;2090610;28;19967;-66
2021/12/15 02:57:06;;;;;;;;;;;;;;;19.06;48.66;100704.09;2093032;28;20371;-66
2021/12/15 02:58:06;;;;;;;;;;;;;;;19.06;48.70;100703.22;2092381;28;20295;-66
2021/12/15 02:59:08;;;;;;;;;;;;;;;19.06;48.63;100709.56;2091331;28;20112;-67
2021/12/15 03:00:18;;;;;;;;;;;;;;;19.06;48.66;100709.56;2092254;28;19971;-66
2021/12/15 03:01:29;;;;;;;;;;;;;;;19.04;48.67;100703.34;2093266;28;20314;-66
2021/12/15 03:05:02;;;;;;;;;;;;;;;19.04;48.68;100699.75;2079760;28;20022;-67
2021/12/15 03:06:12;;;;;;;;;;;;;;;19.04;48.67;100705.22;2074154;28;19916;-67
2021/12/15 03:07:33;;;;;;;;;;;;;;;19.04;48.69;100708.81;2071436;28;19963;-67
2021/12/15 03:15:31;;;;;;;;;;;;;;;19.04;48.57;100706.09;2082456;28;20470;-66
2021/12/15 03:16:31;;;;;;;;;;;;;;;19.03;48.64;100706.22;2082290;28;20007;-66
2021/12/15 03:17:31;;;;;;;;;;;;;;;19.02;48.62;100699.88;2084998;28;19912;-67
2021/12/15 03:18:32;;;;;;;;;;;;;;;19.02;48.62;100708.09;2083180;28;19916;-66
2021/12/15 03:19:32;;;;;;;;;;;;;;;19.02;48.62;100708.09;2071746;28;20472;-66
2021/12/15 03:20:39;;;;;;;;;;;;;;;19.01;48.59;100706.38;2081524;28;19917;-66
2021/12/15 03:21:39;;;;;;;;;;;;;;;19.02;48.63;100709.97;2082457;28;20414;-66
2021/12/15 03:22:41;;;;;;;;;;;;;;;19.02;48.56;100712.69;2082205;28;21222;-67
2021/12/15 03:23:50;;;;;;;;;;;;;;;19.01;48.66;100711.81;2084635;28;19916;-67
2021/12/15 03:24:50;;;;;;;;;;;;;;;19.00;48.59;100704.63;2083820;28;20304;-66
2021/12/15 03:25:51;;;;;;;;;;;;;;;19.00;48.66;100714.69;2083898;28;19917;-66
2021/12/15 03:27:02;;;;;;;;;;;;;;;19.02;48.67;100712.69;2087057;28;19921;-65
2021/12/15 03:33:36;;;;;;;;;;;;;;;19.00;48.59;100720.16;2083287;28;20111;-66
2021/12/15 03:36:00;;;;;;;;;;;;;;;18.99;48.66;100713.81;2078475;28;19946;-66
2021/12/15 03:38:01;;;;;;;;;;;;;;;18.99;48.68;100712.97;2080340;28;19924;-66
2021/12/15 03:39:02;;;;;;;;;;;;;;;18.99;48.65;100718.44;2085796;28;19920;-66
2021/12/15 03:40:11;;;;;;;;;;;;;;;18.98;48.55;100714.81;2086169;28;20371;-66
2021/12/15 03:41:11;;;;;;;;;;;;;;;18.98;48.66;100716.69;2083086;28;19916;-66
2021/12/15 03:42:16;;;;;;;;;;;;;;;18.98;48.60;100716.69;2083444;28;19995;-66
2021/12/15 03:43:16;;;;;;;;;;;;;;;18.98;48.69;100714.81;2089511;28;19920;-66
2021/12/15 03:44:16;;;;;;;;;;;;;;;18.97;48.60;100718.56;2083249;28;19955;-66
2021/12/15 03:45:19;;;;;;;;;;;;;;;18.97;48.64;100709.50;2084940;28;20383;-66
2021/12/15 03:46:19;;;;;;;;;;;;;;;18.97;48.75;100714.97;2082746;28;19909;-66
2021/12/15 03:47:22;;;;;;;;;;;;;;;18.97;48.64;100720.44;2083682;28;19916;-66
2021/12/15 03:48:24;;;;;;;;;;;;;;;18.95;48.70;100711.50;2082705;28;19917;-66
2021/12/15 03:49:24;;;;;;;;;;;;;;;18.95;48.71;100716.97;2083451;28;19958;-65
2021/12/15 03:50:25;;;;;;;;;;;;;;;18.95;48.69;100711.50;2084720;28;19917;-65
2021/12/15 03:51:26;;;;;;;;;;;;;;;18.95;48.69;100719.69;2085328;28;19917;-66
2021/12/15 03:52:26;;;;;;;;;;;;;;;18.94;48.74;100710.63;2081544;28;20033;-65
2021/12/15 03:53:27;;;;;;;;;;;;;;;18.94;48.66;100720.69;2085161;28;19916;-65
2021/12/15 03:54:27;;;;;;;;;;;;;;;18.94;48.67;100710.63;2086437;28;20019;-66
2021/12/15 03:55:32;;;;;;;;;;;;;;;18.94;48.72;100720.69;2087520;28;20336;-66
2021/12/15 03:56:35;;;;;;;;;;;;;;;18.93;48.63;100724.41;2084443;28;19921;-66
2021/12/15 03:57:36;;;;;;;;;;;;;;;18.93;48.60;100721.69;2091667;28;19920;-65
2021/12/15 03:58:36;;;;;;;;;;;;;;;18.93;48.66;100725.28;2083805;28;19920;-66
2021/12/15 03:59:41;;;;;;;;;;;;;;;18.93;48.60;100724.41;2082815;28;19917;-66
2021/12/15 04:00:50;;;;;;;;;;;;;;;18.92;48.65;100729.03;2077404;28;19915;-66
2021/12/15 04:01:51;;;;;;;;;;;;;;;18.93;48.76;100718.94;2071956;28;20819;-66
2021/12/15 04:02:51;;;;;;;;;;;;;;;18.92;48.94;100722.69;2075527;28;19923;-66
2021/12/15 04:03:53;;;;;;;;;;;;;;;18.92;48.66;100719.97;2075815;28;19908;-66
2021/12/15 04:04:54;;;;;;;;;;;;;;;18.92;48.64;100722.69;2086634;28;19956;-66
2021/12/15 04:05:55;;;;;;;;;;;;;;;18.92;48.75;100725.44;2084743;28;20013;-66
2021/12/15 04:06:55;;;;;;;;;;;;;;;18.92;48.71;100720.81;2082721;28;20315;-66
2021/12/15 04:07:57;;;;;;;;;;;;;;;18.91;48.66;100715.47;2083462;28;19920;-66
2021/12/15 04:08:57;;;;;;;;;;;;;;;18.90;48.71;100716.50;2093017;28;19916;-66
2021/12/15 04:09:58;;;;;;;;;;;;;;;18.90;48.76;100719.22;2090312;28;20120;-66
2021/12/15 04:10:58;;;;;;;;;;;;;;;18.90;48.76;100717.34;2084046;28;19928;-66
2021/12/15 04:12:00;;;;;;;;;;;;;;;18.91;48.63;100715.47;2083692;28;20670;-66
2021/12/15 04:13:00;;;;;;;;;;;;;;;18.90;48.74;100713.75;2083514;28;19917;-66
2021/12/15 04:14:02;;;;;;;;;;;;;;;18.90;48.65;100719.22;2084928;28;20439;-66
2021/12/15 04:15:19;;;;;;;;;;;;;;;18.90;48.60;100711.03;2082100;28;19917;-66
2021/12/15 04:16:42;;;;;;;;;;;;;;;18.89;48.57;100712.91;2083172;28;19927;-66
2021/12/15 04:17:42;;;;;;;;;;;;;;;18.88;48.56;100711.16;2083782;28;19912;-66
2021/12/15 04:18:43;;;;;;;;;;;;;;;18.89;48.71;100712.00;2084484;28;19920;-66
2021/12/15 04:19:43;;;;;;;;;;;;;;;18.89;48.69;100715.63;2082456;28;20391;-66
2021/12/15 04:20:44;;;;;;;;;;;;;;;18.89;48.33;100712.00;2083724;28;20294;-66
2021/12/15 04:21:44;;;;;;;;;;;;;;;18.88;48.75;100715.75;2084073;28;20061;-66
2021/12/15 04:22:44;;;;;;;;;;;;;;;18.89;48.61;100712.00;2083015;28;19963;-66
2021/12/15 04:23:49;;;;;;;;;;;;;;;18.88;48.76;100715.75;2082108;28;20648;-66
2021/12/15 04:24:49;;;;;;;;;;;;;;;18.87;48.64;100712.16;2083485;28;19917;-66
2021/12/15 04:25:51;;;;;;;;;;;;;;;18.88;48.76;100710.28;2081838;28;20423;-66
2021/12/15 04:26:51;;;;;;;;;;;;;;;18.88;48.72;100719.34;2090245;28;20457;-66
2021/12/15 04:27:54;;;;;;;;;;;;;;;18.87;48.77;100714.03;2091108;28;20510;-66
2021/12/15 04:28:54;;;;;;;;;;;;;;;18.87;48.71;100712.16;2083528;28;20042;-65
2021/12/15 04:29:55;;;;;;;;;;;;;;;18.88;48.69;100715.75;2084420;28;20623;-66
2021/12/15 04:30:57;;;;;;;;;;;;;;;18.88;48.72;100722.06;2083698;28;20046;-66
2021/12/15 04:32:03;;;;;;;;;;;;;;;18.87;48.69;100714.03;2080917;28;20890;-66
2021/12/15 04:33:12;;;;;;;;;;;;;;;18.88;48.59;100721.22;2082878;28;19917;-66
2021/12/15 04:34:13;;;;;;;;;;;;;;;18.87;48.67;100716.78;2084891;28;19916;-66
2021/12/15 04:35:14;;;;;;;;;;;;;;;18.87;48.67;100714.03;2083745;28;19909;-66
2021/12/15 04:36:14;;;;;;;;;;;;;;;18.87;48.64;100714.03;2082742;28;20209;-66
2021/12/15 04:37:15;;;;;;;;;;;;;;;18.87;48.57;100719.50;2082776;28;20821;-66
2021/12/15 04:38:15;;;;;;;;;;;;;;;18.87;48.69;100714.91;2087676;28;19920;-65
2021/12/15 04:39:17;;;;;;;;;;;;;;;18.86;48.58;100713.16;2084708;28;20279;-65
2021/12/15 04:40:19;;;;;;;;;;;;;;;18.86;48.65;100713.16;2090139;28;19916;-67
2021/12/15 04:41:20;;;;;;;;;;;;;;;18.86;48.60;100713.16;2080158;28;20141;-66
2021/12/15 04:42:22;;;;;;;;;;;;;;;18.87;48.60;100714.03;2082027;28;19919;-67
2021/12/15 04:43:23;;;;;;;;;;;;;;;18.87;48.68;100719.50;2081551;28;20445;-67
2021/12/15 04:44:25;;;;;;;;;;;;;;;18.88;48.58;100710.28;2084531;28;20283;-66
2021/12/15 04:45:26;;;;;;;;;;;;;;;18.87;48.68;100709.44;2090794;28;19916;-67
2021/12/15 04:46:28;;;;;;;;;;;;;;;18.84;48.64;100705.09;2083826;28;20008;-67
2021/12/15 04:47:29;;;;;;;;;;;;;;;18.88;48.70;100713.03;2081665;28;19927;-67
2021/12/15 04:48:29;;;;;;;;;;;;;;;18.88;48.66;100704.81;2084331;28;19924;-67
2021/12/15 04:49:31;;;;;;;;;;;;;;;18.88;48.67;100715.75;2083900;28;19919;-67
2021/12/15 04:50:32;;;;;;;;;;;;;;;18.87;48.48;100712.16;2087240;28;19939;-64
2021/12/15 04:51:33;;;;;;;;;;;;;;;18.88;48.70;100713.88;2091033;28;19922;-64
2021/12/15 04:52:33;;;;;;;;;;;;;;;18.87;48.61;100703.13;2083512;28;19917;-65
2021/12/15 04:53:34;;;;;;;;;;;;;;;18.89;48.51;100707.44;2082423;28;19925;-64
2021/12/15 04:54:35;;;;;;;;;;;;;;;18.89;48.54;100712.91;2087899;28;19943;-64
2021/12/15 04:55:37;;;;;;;;;;;;;;;18.90;48.50;100716.50;2084967;28;19928;-66
2021/12/15 04:56:40;;;;;;;;;;;;;;;18.91;48.49;100712.75;2083118;28;19924;-66
2021/12/15 04:57:40;;;;;;;;;;;;;;;18.92;48.50;100711.78;2082507;28;19958;-67
2021/12/15 04:58:41;;;;;;;;;;;;;;;18.92;48.43;100715.34;2082609;28;19920;-66
2021/12/15 04:59:42;;;;;;;;;;;;;;;18.94;48.26;100712.50;2083177;28;19974;-66
2021/12/15 05:00:45;;;;;;;;;;;;;;;18.94;48.27;100709.78;2083336;28;19913;-66
2021/12/15 05:01:46;;;;;;;;;;;;;;;18.95;48.33;100719.69;2081889;28;19990;-66
2021/12/15 05:02:47;;;;;;;;;;;;;;;18.95;48.42;100716.97;2084271;28;19913;-66
2021/12/15 05:03:47;;;;;;;;;;;;;;;18.95;48.42;100716.97;2082242;28;19960;-66
2021/12/15 05:04:48;;;;;;;;;;;;;;;18.96;48.38;100711.38;2091118;28;20858;-66
2021/12/15 05:05:49;;;;;;;;;;;;;;;18.96;48.32;100707.75;2091187;28;20326;-66
2021/12/15 05:06:49;;;;;;;;;;;;;;;18.95;48.34;100706.03;2090434;28;19916;-67
2021/12/15 05:07:50;;;;;;;;;;;;;;;18.95;48.34;100712.34;2089787;28;20920;-66
2021/12/15 05:08:51;;;;;;;;;;;;;;;18.96;48.29;100710.47;2089316;28;20466;-66
2021/12/15 05:09:53;;;;;;;;;;;;;;;18.96;48.37;100707.75;2092118;28;19970;-66
2021/12/15 05:10:55;;;;;;;;;;;;;;;18.97;48.35;100714.97;2092308;28;20823;-66
2021/12/15 05:11:56;;;;;;;;;;;;;;;18.97;48.34;100709.50;2091498;28;19908;-66
2021/12/15 05:12:57;;;;;;;;;;;;;;;18.97;48.21;100709.50;2092419;28;20095;-66
2021/12/15 05:13:57;;;;;;;;;;;;;;;18.96;48.36;100710.47;2092780;28;19915;-66
2021/12/15 05:14:58;;;;;;;;;;;;;;;18.96;48.39;100708.63;2089158;28;20017;-66
2021/12/15 05:15:59;;;;;;;;;;;;;;;18.96;48.20;100719.56;2091627;28;20011;-66
2021/12/15 05:16:59;;;;;;;;;;;;;;;18.96;48.36;100713.22;2091712;28;19928;-66
2021/12/15 05:18:00;;;;;;;;;;;;;;;18.96;48.25;100713.22;2089123;28;19961;-66
2021/12/15 05:19:00;;;;;;;;;;;;;;;18.95;48.31;100716.97;2093873;28;19923;-66
2021/12/15 05:20:04;;;;;;;;;;;;;;;18.94;48.29;100715.25;2091675;28;20676;-66
2021/12/15 05:21:06;;;;;;;;;;;;;;;18.95;48.28;100711.50;2092966;28;19920;-66
2021/12/15 05:22:07;;;;;;;;;;;;;;;18.94;48.22;100713.38;2094443;28;19916;-66
2021/12/15 05:23:07;;;;;;;;;;;;;;;18.96;48.22;100708.63;2091857;28;19916;-66
2021/12/15 05:24:21;;;;;;;;;;;;;;;18.97;48.28;100709.50;2091821;28;19916;-66
2021/12/15 05:25:21;;;;;;;;;;;;;;;18.96;48.23;100718.69;2094459;28;20386;-66
2021/12/15 05:26:22;;;;;;;;;;;;;;;18.97;48.35;100714.97;2092498;28;20294;-66
2021/12/15 05:27:22;;;;;;;;;;;;;;;18.95;48.34;100716.97;2093715;28;19916;-66
2021/12/15 05:28:22;;;;;;;;;;;;;;;18.96;48.17;100713.22;2093715;28;19911;-66
2021/12/15 05:29:23;;;;;;;;;;;;;;;18.94;48.20;100715.25;2092587;28;20390;-66
2021/12/15 05:30:23;;;;;;;;;;;;;;;18.96;48.21;100713.22;2094862;28;20580;-66
2021/12/15 05:31:24;;;;;;;;;;;;;;;18.94;48.18;100704.31;2092648;28;19920;-66
2021/12/15 05:32:24;;;;;;;;;;;;;;;18.94;48.24;100710.63;2108761;28;19919;-61
2021/12/15 05:33:25;;;;;;;;;;;;;;;18.94;48.23;100709.78;2108886;28;19912;-61
2021/12/15 05:34:26;;;;;;;;;;;;;;;18.95;48.25;100711.50;2108850;28;20381;-62
2021/12/15 05:35:26;;;;;;;;;;;;;;;18.96;48.19;100713.22;2108832;28;19912;-61
2021/12/15 05:36:26;;;;;;;;;;;;;;;18.95;48.22;100711.50;2108728;28;19923;-61
2021/12/15 05:37:27;;;;;;;;;;;;;;;18.94;48.20;100716.09;2108892;28;20393;-61
2021/12/15 05:38:28;;;;;;;;;;;;;;;18.95;48.22;100711.50;2109116;28;19970;-61
2021/12/15 05:39:28;;;;;;;;;;;;;;;18.95;48.17;100719.69;2108878;28;19916;-61
2021/12/15 05:40:29;;;;;;;;;;;;;;;18.95;48.24;100714.22;2108925;28;19955;-61
2021/12/15 05:41:29;;;;;;;;;;;;;;;18.95;48.24;100719.69;2109210;28;20386;-61
2021/12/15 05:42:30;;;;;;;;;;;;;;;18.94;48.33;100720.69;2108872;28;20344;-61
2021/12/15 05:43:30;;;;;;;;;;;;;;;18.94;48.21;100720.69;2108937;28;20385;-61
2021/12/15 05:44:31;;;;;;;;;;;;;;;18.93;48.37;100718.94;2108886;28;19920;-61
2021/12/15 05:45:34;;;;;;;;;;;;;;;18.93;48.33;100725.28;2108823;28;19934;-62
2021/12/15 05:46:34;;;;;;;;;;;;;;;18.93;48.27;100717.06;2109096;28;20370;-62
2021/12/15 05:47:35;;;;;;;;;;;;;;;18.93;48.32;100721.69;2108924;28;20343;-61
2021/12/15 05:48:35;;;;;;;;;;;;;;;18.93;48.22;100724.41;2108845;28;19912;-62
2021/12/15 05:49:35;;;;;;;;;;;;;;;18.93;48.21;100718.94;2108854;28;19934;-61
2021/12/15 05:50:36;;;;;;;;;;;;;;;18.92;48.24;100720.81;2099771;28;19931;-61
2021/12/15 05:51:37;;;;;;;;;;;;;;;18.92;48.22;100720.81;2099806;28;20264;-62
2021/12/15 05:52:38;;;;;;;;;;;;;;;18.92;48.18;100722.69;2108641;28;20431;-62
2021/12/15 05:53:38;;;;;;;;;;;;;;;18.91;48.25;100720.94;2109014;28;20298;-62
2021/12/15 05:54:39;;;;;;;;;;;;;;;18.92;48.23;100725.44;2108942;28;19916;-62